Time;durP1;ratioP1;P1;durP2;ratioP2;P2;SDS_P1;SDS_P2;PMS_P1;PMS_P2;Temp;Humidity;BMP_temperature;BMP_pressure;BME280_temperature;BME280_humidity;BME280_pressure;Samples;Min_cycle;Max_cycle;Signal;HPM_P1;HPM_P2
2022/12/29 00:01:52;;;;;;;2.08;1.90;;;11.70;99.90;;;;;;5044571;28;20047;-37
2022/12/29 00:04:18;;;;;;;2.45;2.17;;;11.70;99.90;;;;;;5043969;28;20025;-39
2022/12/29 00:06:44;;;;;;;2.10;1.90;;;11.70;99.90;;;;;;5044940;28;20111;-38
2022/12/29 00:09:12;;;;;;;2.10;1.90;;;11.70;99.90;;;;;;5044104;28;20041;-40
2022/12/29 00:11:37;;;;;;;2.28;2.08;;;11.70;99.90;;;;;;5044912;28;20021;-39
2022/12/29 00:16:47;;;;;;;2.58;2.10;;;11.70;99.90;;;;;;5044112;28;20036;-39
2022/12/29 00:36:12;;;;;;;2.20;2.00;;;11.70;99.90;;;;;;5044585;28;20098;-39
2022/12/29 00:44:13;;;;;;;2.35;2.08;;;11.70;99.90;;;;;;5043625;28;20459;-39
2022/12/29 00:46:41;;;;;;;2.05;1.95;;;11.70;99.90;;;;;;5044585;28;20025;-40
2022/12/29 00:51:55;;;;;;;2.30;1.92;;;11.70;99.90;;;;;;5043714;28;20043;-38
2022/12/29 00:54:21;;;;;;;2.17;1.85;;;11.70;99.90;;;;;;5043769;28;20029;-39
2022/12/29 00:56:48;;;;;;;2.67;2.08;;;11.70;99.90;;;;;;5044101;28;20029;-39
2022/12/29 00:59:14;;;;;;;3.67;2.22;;;11.80;99.90;;;;;;5042692;28;20568;-39
2022/12/29 01:01:40;;;;;;;2.50;1.70;;;11.70;99.90;;;;;;5043877;28;20046;-38
2022/12/29 01:04:06;;;;;;;2.60;1.42;;;11.70;99.90;;;;;;5043519;28;20056;-40
2022/12/29 01:06:32;;;;;;;2.88;1.55;;;11.70;99.90;;;;;;5042850;28;20536;-39
2022/12/29 01:11:42;;;;;;;1.70;1.60;;;11.70;99.90;;;;;;5044130;28;20047;-39
2022/12/29 01:14:08;;;;;;;1.95;1.35;;;11.70;99.90;;;;;;5042645;28;20021;-40
2022/12/29 01:16:34;;;;;;;1.20;1.10;;;11.70;99.90;;;;;;5043498;28;20091;-38
2022/12/29 01:19:00;;;;;;;1.50;1.02;;;11.70;99.90;;;;;;5042878;28;20055;-39
2022/12/29 01:21:25;;;;;;;0.93;0.93;;;11.80;99.90;;;;;;5043121;28;20770;-39
2022/12/29 01:23:51;;;;;;;2.20;1.20;;;11.80;99.90;;;;;;5043526;28;20029;-38
2022/12/29 01:26:17;;;;;;;2.00;0.95;;;11.70;99.90;;;;;;5042512;28;20045;-37
2022/12/29 01:28:43;;;;;;;0.80;0.80;;;11.80;99.90;;;;;;5043426;28;20753;-39
2022/12/29 01:31:11;;;;;;;1.30;0.77;;;11.70;99.90;;;;;;5042995;28;20032;-37
2022/12/29 01:33:37;;;;;;;0.82;0.80;;;11.80;99.90;;;;;;5042376;28;20056;-39
2022/12/29 01:36:07;;;;;;;0.68;0.65;;;11.80;99.90;;;;;;5043197;28;20040;-40
2022/12/29 01:38:35;;;;;;;1.23;0.80;;;11.80;99.90;;;;;;5042917;28;20064;-40
2022/12/29 01:41:01;;;;;;;0.98;0.77;;;11.80;99.90;;;;;;5042142;28;20036;-40
2022/12/29 01:43:41;;;;;;;1.38;1.00;;;11.70;99.90;;;;;;5042580;28;20560;-39
2022/12/29 01:46:20;;;;;;;1.67;0.75;;;11.70;99.90;;;;;;5042758;28;20032;-39
2022/12/29 01:48:48;;;;;;;0.80;0.80;;;11.70;99.90;;;;;;5041955;28;20025;-38
2022/12/29 01:51:14;;;;;;;1.50;0.90;;;11.70;99.90;;;;;;5042156;28;20150;-40
2022/12/29 01:53:40;;;;;;;1.15;0.80;;;11.70;99.90;;;;;;5042467;28;20169;-40
2022/12/29 01:56:09;;;;;;;1.77;0.90;;;11.70;99.90;;;;;;5041245;28;20560;-39
2022/12/29 01:58:41;;;;;;;2.00;1.38;;;11.70;99.90;;;;;;5042594;28;20059;-40
2022/12/29 02:01:07;;;;;;;2.90;0.80;;;11.70;99.90;;;;;;5032495;28;20491;-38
2022/12/29 02:03:34;;;;;;;1.77;1.38;;;11.70;99.90;;;;;;5041615;28;20271;-39
2022/12/29 02:06:16;;;;;;;0.93;0.80;;;11.70;99.90;;;;;;5042021;28;20116;-41
2022/12/29 02:08:45;;;;;;;1.20;1.10;;;11.70;99.90;;;;;;5042312;28;20025;-39
2022/12/29 02:11:11;;;;;;;3.03;0.90;;;11.70;99.90;;;;;;5042540;28;20017;-39
2022/12/29 02:13:37;;;;;;;1.20;1.10;;;11.70;99.90;;;;;;5042370;28;20045;-41
2022/12/29 02:16:29;;;;;;;1.10;1.00;;;11.70;99.90;;;;;;5040954;28;20023;-40
2022/12/29 02:19:24;;;;;;;1.92;1.00;;;11.70;99.90;;;;;;5042438;28;20191;-39
2022/12/29 02:22:31;;;;;;;1.48;0.93;;;11.80;99.90;;;;;;5032517;28;20560;-38
2022/12/29 02:25:32;;;;;;;1.38;0.90;;;11.70;99.90;;;;;;5029246;28;20027;-37
2022/12/29 02:28:16;;;;;;;1.20;1.00;;;11.70;99.90;;;;;;5032877;28;20110;-39
2022/12/29 02:30:57;;;;;;;1.60;1.00;;;11.70;99.90;;;;;;5041304;28;20032;-39
2022/12/29 02:33:51;;;;;;;1.70;0.90;;;11.70;99.90;;;;;;5042130;28;20061;-40
2022/12/29 02:36:44;;;;;;;3.30;1.10;;;11.70;99.90;;;;;;5041496;28;20024;-40
2022/12/29 02:39:25;;;;;;;1.63;1.08;;;11.60;99.90;;;;;;5041950;28;20637;-39
2022/12/29 02:42:01;;;;;;;1.95;1.05;;;11.60;99.90;;;;;;5041787;28;20235;-39
2022/12/29 02:44:43;;;;;;;0.80;0.80;;;11.50;99.90;;;;;;5040814;28;20060;-39
2022/12/29 02:47:27;;;;;;;1.10;0.90;;;11.60;99.90;;;;;;5038460;28;20055;-39
2022/12/29 02:50:22;;;;;;;1.38;0.95;;;11.60;99.90;;;;;;5042017;28;20037;-39
2022/12/29 02:53:04;;;;;;;2.63;0.90;;;11.50;99.90;;;;;;5031028;28;20094;-40
2022/12/29 02:55:30;;;;;;;2.00;1.00;;;11.60;99.90;;;;;;5041940;28;20693;-37
2022/12/29 02:58:16;;;;;;;0.73;0.73;;;11.50;99.90;;;;;;5041587;28;20542;-39
2022/12/29 03:01:08;;;;;;;1.38;0.80;;;11.50;99.90;;;;;;5041506;28;20025;-36
2022/12/29 03:04:10;;;;;;;2.40;0.70;;;11.60;99.90;;;;;;5041894;28;20140;-39
2022/12/29 03:07:11;;;;;;;1.63;0.80;;;11.60;99.90;;;;;;5040408;28;20171;-39
2022/12/29 03:10:19;;;;;;;2.08;0.85;;;11.60;99.90;;;;;;5019599;28;20072;-40
2022/12/29 03:16:14;;;;;;;2.50;0.88;;;11.70;99.90;;;;;;5041880;28;20168;-38
2022/12/29 03:18:57;;;;;;;2.97;0.70;;;11.70;99.90;;;;;;5031057;28;20455;-36
2022/12/29 03:24:25;;;;;;;2.60;0.68;;;11.60;99.90;;;;;;5041848;28;20210;-36
2022/12/29 03:26:54;;;;;;;2.53;0.77;;;11.50;99.90;;;;;;5040974;28;20052;-38
2022/12/29 03:29:21;;;;;;;3.17;1.13;;;11.40;99.90;;;;;;5041179;28;20039;-39
2022/12/29 03:31:48;;;;;;;1.63;0.80;;;11.30;99.90;;;;;;5041171;28;20432;-39
2022/12/29 03:34:16;;;;;;;2.00;0.68;;;11.20;99.90;;;;;;5043635;28;20076;-37
2022/12/29 03:36:53;;;;;;;2.85;0.90;;;11.30;99.90;;;;;;5045720;28;20029;-39
2022/12/29 03:39:22;;;;;;;3.20;0.65;;;11.30;99.90;;;;;;5034054;28;20075;-38
2022/12/29 03:41:53;;;;;;;2.83;0.68;;;11.30;99.90;;;;;;5045134;28;20475;-38
2022/12/29 03:44:19;;;;;;;1.58;0.65;;;11.30;99.90;;;;;;5045280;28;20099;-39
2022/12/29 03:46:44;;;;;;;1.23;0.73;;;11.40;99.90;;;;;;5045931;28;20503;-38
2022/12/29 03:49:10;;;;;;;1.17;0.55;;;11.40;99.90;;;;;;5044227;28;20025;-38
2022/12/29 03:51:36;;;;;;;2.10;0.80;;;11.50;99.90;;;;;;5044408;28;20029;-38
2022/12/29 03:54:02;;;;;;;2.80;0.52;;;11.50;99.90;;;;;;5043633;28;20020;-38
2022/12/29 03:56:28;;;;;;;0.93;0.60;;;11.50;99.90;;;;;;5044799;28;20144;-37
2022/12/29 03:58:54;;;;;;;1.67;0.88;;;11.50;99.90;;;;;;5045296;28;20165;-39
2022/12/29 04:01:19;;;;;;;1.65;0.75;;;11.50;99.90;;;;;;5044580;28;20031;-40
2022/12/29 04:03:45;;;;;;;2.58;0.93;;;11.50;99.90;;;;;;5045196;28;20422;-40
2022/12/29 04:06:13;;;;;;;1.48;0.88;;;11.60;99.90;;;;;;5044914;28;20040;-40
2022/12/29 04:08:38;;;;;;;1.42;0.77;;;11.60;99.90;;;;;;5044149;28;20028;-40
2022/12/29 04:11:04;;;;;;;2.55;0.70;;;11.60;99.90;;;;;;5044941;28;20044;-39
2022/12/29 04:13:29;;;;;;;0.98;0.60;;;11.60;99.90;;;;;;5045243;28;20152;-38
2022/12/29 04:15:55;;;;;;;2.58;0.75;;;11.60;99.90;;;;;;5044619;28;20534;-39
2022/12/29 04:18:20;;;;;;;2.05;0.60;;;11.60;99.90;;;;;;5044167;28;20044;-38
2022/12/29 04:21:03;;;;;;;3.25;0.98;;;11.60;99.90;;;;;;5044347;28;20029;-39
2022/12/29 04:23:30;;;;;;;1.42;0.70;;;11.60;99.90;;;;;;5043830;28;20794;-41
2022/12/29 04:25:56;;;;;;;3.03;0.77;;;11.70;99.90;;;;;;5044842;28;20104;-39
2022/12/29 04:28:22;;;;;;;1.92;0.77;;;11.70;99.90;;;;;;5044403;28;20037;-39
2022/12/29 04:30:47;;;;;;;1.52;0.52;;;11.60;99.90;;;;;;5043958;28;20468;-39
2022/12/29 04:33:13;;;;;;;1.42;0.70;;;11.70;99.90;;;;;;5043437;28;20395;-40
2022/12/29 04:35:39;;;;;;;1.75;0.80;;;11.70;99.90;;;;;;5044271;28;20496;-38
2022/12/29 04:38:05;;;;;;;1.95;0.82;;;11.70;99.90;;;;;;5043112;28;20112;-40
2022/12/29 04:40:30;;;;;;;2.67;0.75;;;11.70;99.90;;;;;;5044044;28;20032;-37
2022/12/29 04:42:56;;;;;;;2.28;0.70;;;11.60;99.90;;;;;;5043795;28;20037;-36
2022/12/29 04:45:21;;;;;;;2.53;0.80;;;11.60;99.90;;;;;;5040365;28;20070;-38
2022/12/29 04:47:47;;;;;;;1.40;0.75;;;11.60;99.90;;;;;;5042908;28;20040;-39
2022/12/29 04:50:12;;;;;;;1.00;0.60;;;11.60;99.90;;;;;;5043001;28;20737;-38
2022/12/29 04:52:38;;;;;;;3.60;0.52;;;11.60;99.90;;;;;;5043649;28;20040;-40
2022/12/29 04:55:07;;;;;;;1.98;0.90;;;11.60;99.90;;;;;;5043425;28;20113;-39
2022/12/29 04:57:32;;;;;;;3.35;0.75;;;11.50;99.90;;;;;;5043369;28;20031;-40
2022/12/29 04:59:58;;;;;;;3.33;1.00;;;11.50;99.90;;;;;;5043689;28;20021;-39
2022/12/29 05:02:23;;;;;;;2.97;0.70;;;11.50;99.90;;;;;;5043688;28;20681;-39
2022/12/29 05:04:49;;;;;;;2.75;0.75;;;11.50;99.90;;;;;;5042432;28;20099;-38
2022/12/29 05:07:15;;;;;;;6.85;1.38;;;11.40;99.90;;;;;;5031787;28;20059;-39
2022/12/29 05:09:41;;;;;;;2.17;0.60;;;11.40;99.90;;;;;;5042929;28;20086;-39
2022/12/29 05:12:06;;;;;;;2.58;0.73;;;11.40;99.90;;;;;;5042454;28;20040;-39
2022/12/29 05:14:32;;;;;;;3.42;0.90;;;11.40;99.90;;;;;;5042981;28;20368;-38
2022/12/29 05:16:57;;;;;;;5.15;0.73;;;11.40;99.90;;;;;;5042435;28;20075;-39
2022/12/29 05:19:23;;;;;;;4.25;0.75;;;11.30;99.90;;;;;;5043425;28;20806;-40
2022/12/29 05:21:48;;;;;;;3.42;0.70;;;11.40;99.90;;;;;;5043221;28;20025;-39
2022/12/29 05:24:15;;;;;;;6.68;1.20;;;11.40;99.90;;;;;;5043202;28;20575;-38
2022/12/29 05:26:40;;;;;;;2.78;0.80;;;11.40;99.90;;;;;;5043015;28;20700;-37
2022/12/29 05:29:06;;;;;;;2.65;0.65;;;11.40;99.90;;;;;;5043014;28;20546;-39
2022/12/29 05:31:32;;;;;;;3.42;1.00;;;11.40;99.90;;;;;;5043548;28;20703;-40
2022/12/29 05:33:57;;;;;;;5.50;1.00;;;11.30;99.90;;;;;;5042308;28;20049;-40
2022/12/29 05:36:23;;;;;;;3.38;0.80;;;11.20;99.90;;;;;;5043245;28;20419;-38
2022/12/29 05:38:48;;;;;;;1.50;0.60;;;11.20;99.90;;;;;;5043575;28;20551;-38
2022/12/29 05:41:14;;;;;;;1.35;0.73;;;11.10;99.90;;;;;;5042335;28;20047;-39
2022/12/29 05:43:40;;;;;;;2.78;0.90;;;11.10;99.90;;;;;;5043571;28;20534;-39
2022/12/29 05:46:05;;;;;;;1.85;0.70;;;11.00;99.90;;;;;;5042825;28;20473;-38
2022/12/29 05:48:31;;;;;;;3.33;0.90;;;10.90;99.90;;;;;;5043069;28;20367;-37
2022/12/29 05:50:56;;;;;;;1.65;0.95;;;10.80;99.90;;;;;;5043358;28;20021;-40
2022/12/29 05:53:22;;;;;;;1.73;0.93;;;10.80;99.90;;;;;;5042877;28;20122;-40
2022/12/29 05:55:48;;;;;;;2.65;1.00;;;10.80;99.90;;;;;;5041964;28;20104;-38
2022/12/29 05:58:14;;;;;;;1.75;0.93;;;10.70;99.90;;;;;;5041540;28;20028;-40
2022/12/29 06:00:40;;;;;;;2.03;0.85;;;10.70;99.90;;;;;;5041990;28;20074;-37
2022/12/29 06:03:06;;;;;;;3.08;1.00;;;10.70;99.90;;;;;;5042007;28;20032;-38
2022/12/29 06:05:31;;;;;;;2.67;0.93;;;10.70;99.90;;;;;;5042670;28;20029;-36
2022/12/29 06:07:57;;;;;;;2.92;0.80;;;10.70;99.90;;;;;;5041327;28;20139;-37
2022/12/29 06:10:22;;;;;;;2.90;1.10;;;10.70;99.90;;;;;;5042317;28;20032;-39
2022/12/29 06:12:48;;;;;;;4.72;1.30;;;10.70;99.90;;;;;;5042241;28;20697;-39
2022/12/29 06:15:14;;;;;;;3.88;0.80;;;10.80;99.90;;;;;;5041773;28;20103;-39
2022/12/29 06:17:40;;;;;;;4.40;1.17;;;10.80;99.90;;;;;;5042042;28;20085;-38
2022/12/29 06:20:06;;;;;;;4.75;1.20;;;10.80;99.90;;;;;;5041750;28;20116;-37
2022/12/29 06:22:32;;;;;;;4.20;1.08;;;10.80;99.90;;;;;;5040900;28;20116;-39
2022/12/29 06:24:58;;;;;;;4.03;0.85;;;10.80;99.90;;;;;;5041490;28;20025;-39
2022/12/29 06:27:24;;;;;;;5.65;1.38;;;10.80;99.90;;;;;;5040691;28;20017;-40
2022/12/29 06:29:50;;;;;;;4.85;1.20;;;10.80;99.90;;;;;;5040326;28;20036;-39
2022/12/29 06:32:15;;;;;;;4.35;0.98;;;10.80;99.90;;;;;;5041194;28;20041;-40
2022/12/29 06:34:41;;;;;;;6.28;1.23;;;10.80;99.90;;;;;;5041169;28;20081;-34
2022/12/29 06:37:07;;;;;;;4.60;1.00;;;10.80;99.90;;;;;;5041027;28;20386;-38
2022/12/29 06:39:32;;;;;;;3.28;0.88;;;10.80;99.90;;;;;;5041589;28;20021;-38
2022/12/29 06:41:58;;;;;;;3.72;1.00;;;10.80;99.90;;;;;;5041375;28;20086;-42
2022/12/29 06:44:23;;;;;;;5.38;1.05;;;10.80;99.90;;;;;;5040961;28;20393;-40
2022/12/29 06:46:49;;;;;;;5.45;0.82;;;10.80;99.90;;;;;;5045272;28;20016;-39
2022/12/29 06:49:15;;;;;;;5.10;1.30;;;10.90;99.90;;;;;;5046361;28;20017;-39
2022/12/29 06:51:40;;;;;;;6.05;1.10;;;10.90;99.90;;;;;;5040535;28;20690;-41
2022/12/29 06:54:06;;;;;;;4.45;1.10;;;10.90;99.90;;;;;;5040958;28;20021;-38
2022/12/29 06:56:32;;;;;;;5.63;1.40;;;10.90;99.90;;;;;;5041707;28;20040;-37
2022/12/29 06:58:59;;;;;;;4.47;1.20;;;10.90;99.90;;;;;;5040807;28;20116;-39
2022/12/29 07:01:25;;;;;;;4.20;0.98;;;10.90;99.90;;;;;;5041248;28;20028;-39
2022/12/29 07:03:51;;;;;;;3.40;1.15;;;11.00;99.90;;;;;;5040629;28;20033;-39
2022/12/29 07:06:16;;;;;;;2.80;1.10;;;11.00;99.90;;;;;;5038416;28;20504;-39
2022/12/29 07:08:42;;;;;;;7.22;1.20;;;11.00;99.90;;;;;;5040366;28;20025;-39
2022/12/29 07:11:08;;;;;;;3.58;1.10;;;11.00;99.90;;;;;;5039363;28;20021;-40
2022/12/29 07:13:34;;;;;;;5.63;1.35;;;11.00;99.90;;;;;;5041678;28;20091;-38
2022/12/29 07:15:59;;;;;;;3.72;0.93;;;11.00;99.90;;;;;;5037231;28;20033;-39
2022/12/29 07:18:25;;;;;;;5.93;1.00;;;11.10;99.90;;;;;;5040959;28;20025;-38
2022/12/29 07:20:50;;;;;;;3.38;1.02;;;11.10;99.90;;;;;;5040961;28;20742;-40
2022/12/29 07:23:16;;;;;;;4.50;1.08;;;11.10;99.90;;;;;;5040773;28;20486;-39
2022/12/29 07:25:42;;;;;;;3.75;1.23;;;11.10;99.90;;;;;;5039945;28;20035;-40
2022/12/29 07:28:07;;;;;;;4.45;1.20;;;11.10;99.90;;;;;;5040369;28;20056;-39
2022/12/29 07:30:33;;;;;;;5.50;1.40;;;11.10;99.90;;;;;;5040778;28;20043;-37
2022/12/29 07:32:58;;;;;;;2.92;1.00;;;11.10;99.90;;;;;;5039490;28;20532;-40
2022/12/29 07:35:24;;;;;;;4.70;1.27;;;11.10;99.90;;;;;;5040627;28;20054;-41
2022/12/29 07:37:50;;;;;;;6.60;1.38;;;11.10;99.90;;;;;;5040071;28;20174;-38
2022/12/29 07:40:15;;;;;;;3.50;1.33;;;11.10;99.90;;;;;;5039298;28;20032;-39
2022/12/29 07:42:41;;;;;;;6.13;1.27;;;11.10;99.90;;;;;;5040698;28;20838;-38
2022/12/29 07:45:09;;;;;;;4.85;1.52;;;11.10;99.90;;;;;;5040602;28;20055;-39
2022/12/29 07:47:34;;;;;;;2.75;1.13;;;11.20;99.90;;;;;;5038564;28;20115;-39
2022/12/29 07:50:00;;;;;;;5.05;0.93;;;11.20;99.90;;;;;;5039970;28;20027;-41
2022/12/29 07:52:25;;;;;;;6.60;1.00;;;11.20;99.90;;;;;;5041100;28;20036;-35
2022/12/29 07:54:51;;;;;;;4.38;1.63;;;11.20;99.90;;;;;;5040380;28;20021;-39
2022/12/29 07:57:16;;;;;;;5.88;1.23;;;11.20;99.90;;;;;;5040244;28;20028;-40
2022/12/29 07:59:42;;;;;;;4.22;1.20;;;11.20;99.90;;;;;;5040303;28;20036;-37
2022/12/29 08:02:10;;;;;;;4.68;1.20;;;11.20;99.90;;;;;;5039517;28;20388;-38
2022/12/29 08:04:35;;;;;;;4.90;1.00;;;11.20;99.90;;;;;;5041170;28;20036;-40
2022/12/29 08:07:01;;;;;;;6.45;2.03;;;11.20;99.90;;;;;;5040870;28;20024;-39
2022/12/29 08:09:27;;;;;;;5.13;1.60;;;11.20;99.90;;;;;;5040630;28;20126;-39
2022/12/29 08:11:54;;;;;;;6.80;1.52;;;11.10;99.90;;;;;;5040881;28;20041;-40
2022/12/29 08:14:19;;;;;;;5.07;1.50;;;11.10;99.90;;;;;;5039945;28;20487;-38
2022/12/29 08:16:45;;;;;;;8.35;1.50;;;11.10;99.90;;;;;;5041141;28;20021;-38
2022/12/29 08:19:12;;;;;;;5.15;1.27;;;11.00;99.90;;;;;;5043050;28;20056;-38
2022/12/29 08:21:38;;;;;;;4.90;1.80;;;11.00;99.90;;;;;;5044474;28;20465;-39
2022/12/29 08:24:04;;;;;;;3.65;1.20;;;11.00;99.90;;;;;;5044335;28;20036;-40
2022/12/29 08:26:30;;;;;;;8.13;1.45;;;11.00;99.90;;;;;;5044000;28;20116;-39
2022/12/29 08:28:56;;;;;;;7.15;1.40;;;11.10;99.90;;;;;;5043302;28;20491;-39
2022/12/29 08:31:22;;;;;;;5.30;1.10;;;11.10;99.90;;;;;;5043970;28;20029;-39
2022/12/29 08:33:48;;;;;;;6.57;1.17;;;11.10;99.90;;;;;;5043804;28;20481;-40
2022/12/29 08:36:13;;;;;;;4.60;2.08;;;11.20;99.90;;;;;;5042506;28;20040;-39
2022/12/29 08:38:39;;;;;;;5.90;1.65;;;11.20;99.90;;;;;;5043954;28;20040;-40
2022/12/29 08:41:04;;;;;;;4.82;1.48;;;11.20;99.90;;;;;;5042715;28;20495;-40
2022/12/29 08:43:30;;;;;;;7.68;1.58;;;11.20;99.90;;;;;;5043425;28;20044;-40
2022/12/29 08:45:57;;;;;;;5.28;1.33;;;11.20;99.90;;;;;;5043649;28;20040;-36
2022/12/29 08:48:23;;;;;;;6.53;1.48;;;11.20;99.90;;;;;;5043268;28;20017;-40
2022/12/29 08:50:50;;;;;;;6.80;1.58;;;11.20;99.90;;;;;;5042885;28;20172;-38
2022/12/29 08:53:16;;;;;;;5.65;1.50;;;11.20;99.90;;;;;;5043104;28;20064;-41
2022/12/29 08:55:41;;;;;;;4.72;1.42;;;11.30;99.90;;;;;;5044026;28;20025;-40
2022/12/29 08:58:07;;;;;;;4.28;1.30;;;11.30;99.90;;;;;;5042190;28;20064;-40
2022/12/29 09:00:32;;;;;;;4.28;1.85;;;11.30;99.90;;;;;;5043751;28;20115;-40
2022/12/29 09:02:58;;;;;;;5.80;1.17;;;11.30;99.90;;;;;;5043216;28;20050;-37
2022/12/29 09:05:24;;;;;;;7.80;1.40;;;11.30;99.90;;;;;;5043339;28;20028;-39
2022/12/29 09:07:49;;;;;;;5.53;1.25;;;11.40;99.90;;;;;;5043508;28;20095;-39
2022/12/29 09:10:15;;;;;;;5.30;1.30;;;11.40;99.90;;;;;;5042708;28;20087;-39
2022/12/29 09:12:40;;;;;;;7.25;2.22;;;11.40;99.90;;;;;;5042543;28;20037;-40
2022/12/29 09:15:07;;;;;;;7.25;1.77;;;11.40;99.90;;;;;;5042915;28;20427;-40
2022/12/29 09:17:45;;;;;;;4.72;1.45;;;11.30;99.90;;;;;;5043230;28;20047;-39
2022/12/29 09:20:18;;;;;;;7.90;1.63;;;11.30;99.90;;;;;;5042617;28;20032;-40
2022/12/29 09:22:44;;;;;;;8.02;1.50;;;11.20;99.90;;;;;;5042753;28;20052;-38
2022/12/29 09:25:11;;;;;;;6.82;1.40;;;11.20;99.90;;;;;;5041908;28;20025;-41
2022/12/29 09:27:37;;;;;;;6.32;1.77;;;11.20;99.90;;;;;;5042620;28;20039;-41
2022/12/29 09:30:04;;;;;;;6.93;1.45;;;11.20;99.90;;;;;;5041366;28;20017;-39
2022/12/29 09:32:29;;;;;;;9.35;1.80;;;11.20;99.90;;;;;;5041102;28;20033;-40
2022/12/29 09:34:55;;;;;;;9.00;1.95;;;11.20;99.90;;;;;;5040757;28;20094;-39
2022/12/29 09:37:21;;;;;;;8.02;1.65;;;11.10;99.90;;;;;;5041204;28;20075;-40
2022/12/29 09:39:46;;;;;;;8.48;2.40;;;11.10;99.90;;;;;;5041387;28;20099;-40
2022/12/29 09:42:40;;;;;;;4.85;1.77;;;11.20;99.90;;;;;;5039255;28;20763;-40
2022/12/29 09:45:14;;;;;;;6.90;1.75;;;11.20;99.90;;;;;;5041829;28;20106;-40
2022/12/29 09:47:45;;;;;;;7.25;1.77;;;11.20;99.90;;;;;;5041336;28;20114;-38
2022/12/29 09:50:33;;;;;;;5.65;1.50;;;11.20;99.90;;;;;;5041151;28;20017;-40
2022/12/29 09:53:13;;;;;;;8.05;1.50;;;11.10;99.90;;;;;;5041763;28;20041;-39
2022/12/29 09:55:44;;;;;;;6.65;2.33;;;11.10;99.90;;;;;;5042810;28;20028;-38
2022/12/29 09:58:39;;;;;;;5.40;1.30;;;11.10;99.90;;;;;;5042108;28;20104;-38
2022/12/29 10:01:12;;;;;;;7.47;1.70;;;11.10;99.90;;;;;;5040733;28;20028;-41
2022/12/29 10:03:48;;;;;;;7.20;1.50;;;11.10;99.90;;;;;;5042662;28;20145;-40
2022/12/29 10:06:31;;;;;;;6.03;1.30;;;11.00;99.90;;;;;;5040333;28;20075;-39
2022/12/29 10:08:56;;;;;;;;;;;11.00;99.90;;;;;;5040632;28;20029;-41
2022/12/29 10:11:48;;;;;;;8.60;2.03;;;10.90;99.90;;;;;;5041543;28;19905;-40
2022/12/29 10:14:32;;;;;;;5.57;1.80;;;10.80;99.90;;;;;;5040629;28;20047;-39
2022/12/29 10:17:20;;;;;;;7.03;2.20;;;10.80;99.90;;;;;;5040877;28;20159;-41
2022/12/29 10:20:13;;;;;;;9.48;1.40;;;10.80;99.90;;;;;;5042628;28;20028;-39
2022/12/29 10:22:48;;;;;;;9.13;2.80;;;10.80;99.90;;;;;;5039548;28;20111;-40
2022/12/29 10:25:20;;;;;;;7.05;2.10;;;10.70;99.90;;;;;;5039855;28;20037;-40
2022/12/29 10:27:51;;;;;;;4.85;1.30;;;10.70;99.90;;;;;;5040618;28;20025;-39
2022/12/29 10:30:18;;;;;;;6.40;1.33;;;10.70;99.90;;;;;;5040904;28;20037;-37
2022/12/29 10:32:57;;;;;;;6.18;1.80;;;10.60;99.90;;;;;;5041010;28;20056;-41
2022/12/29 10:35:25;;;;;;;5.30;1.63;;;10.70;99.90;;;;;;5040518;28;20154;-39
2022/12/29 10:38:01;;;;;;;5.10;1.27;;;10.60;99.90;;;;;;5038141;28;20711;-40
2022/12/29 10:40:40;;;;;;;8.70;1.75;;;10.70;99.90;;;;;;5041194;28;20025;-39
2022/12/29 10:43:40;;;;;;;5.07;1.40;;;10.60;99.90;;;;;;5036134;28;20334;-37
2022/12/29 10:46:11;;;;;;;3.85;1.30;;;10.60;99.90;;;;;;5040145;28;20028;-36
2022/12/29 10:48:37;;;;;;;7.00;1.85;;;10.60;99.90;;;;;;5030321;28;20036;-39
2022/12/29 10:51:06;;;;;;;3.65;1.30;;;10.60;99.90;;;;;;5039491;28;20865;-38
2022/12/29 10:53:44;;;;;;;4.25;1.27;;;10.60;99.90;;;;;;5041037;28;20037;-39
2022/12/29 10:56:27;;;;;;;6.38;2.45;;;10.60;99.90;;;;;;5040239;28;20021;-39
2022/12/29 10:58:56;;;;;;;5.53;1.50;;;10.60;99.90;;;;;;5041118;28;20385;-38
2022/12/29 11:01:25;;;;;;;6.88;1.80;;;10.50;99.90;;;;;;5040384;28;20755;-37
2022/12/29 11:04:02;;;;;;;6.05;1.58;;;10.50;99.90;;;;;;5040169;28;20033;-39
2022/12/29 11:06:32;;;;;;;7.80;1.48;;;10.60;99.90;;;;;;5040870;28;20036;-41
2022/12/29 11:09:09;;;;;;;4.88;1.73;;;10.60;99.90;;;;;;5040866;28;20047;-39
2022/12/29 11:11:36;;;;;;;6.05;1.35;;;10.60;99.90;;;;;;5040917;28;20040;-39
2022/12/29 11:14:30;;;;;;;7.63;2.10;;;10.60;99.90;;;;;;5036980;28;20060;-39
2022/12/29 11:17:01;;;;;;;6.18;1.63;;;10.60;99.90;;;;;;5036254;28;20035;-38
2022/12/29 11:19:30;;;;;;;7.47;1.70;;;10.60;99.90;;;;;;5040422;28;20056;-40
2022/12/29 11:22:21;;;;;;;6.07;2.15;;;10.70;99.90;;;;;;5040929;28;20032;-37
2022/12/29 11:24:49;;;;;;;6.45;1.88;;;10.70;99.90;;;;;;5040800;28;20029;-39
2022/12/29 11:27:17;;;;;;;7.15;1.95;;;10.80;99.90;;;;;;5040445;28;20053;-40
2022/12/29 11:29:44;;;;;;;6.18;2.05;;;10.80;99.90;;;;;;5040723;28;20518;-40
2022/12/29 11:32:19;;;;;;;7.03;2.13;;;10.80;99.90;;;;;;5039267;28;20071;-40
2022/12/29 11:34:46;;;;;;;5.60;1.63;;;10.90;99.90;;;;;;5037875;28;20049;-39
2022/12/29 11:37:17;;;;;;;7.80;2.33;;;10.90;99.90;;;;;;5041211;28;20028;-40
2022/12/29 11:39:54;;;;;;;6.97;2.33;;;10.90;99.90;;;;;;5040047;28;20100;-39
2022/12/29 11:42:24;;;;;;;11.20;2.80;;;11.00;99.90;;;;;;5040723;28;20025;-39
2022/12/29 11:44:51;;;;;;;7.70;3.05;;;11.00;99.90;;;;;;5041009;28;20036;-40
2022/12/29 11:47:30;;;;;;;7.57;2.55;;;11.00;99.90;;;;;;5039253;28;20029;-39
2022/12/29 11:50:00;;;;;;;11.30;2.65;;;11.10;99.90;;;;;;5040747;28;20104;-41
2022/12/29 11:52:29;;;;;;;8.25;2.67;;;11.10;99.90;;;;;;5040403;28;20063;-40
2022/12/29 11:54:56;;;;;;;8.75;2.40;;;11.10;99.90;;;;;;5043124;28;20628;-41
2022/12/29 11:57:23;;;;;;;7.13;2.35;;;11.20;99.90;;;;;;5044351;28;20385;-38
2022/12/29 11:59:55;;;;;;;10.20;3.05;;;11.20;99.90;;;;;;5043413;28;20032;-40
2022/12/29 12:02:43;;;;;;;9.05;3.05;;;11.20;99.90;;;;;;5044130;28;20037;-39
2022/12/29 12:05:14;;;;;;;6.78;2.50;;;11.20;99.90;;;;;;5043619;28;20032;-40
2022/12/29 12:07:44;;;;;;;10.32;3.20;;;11.30;99.90;;;;;;5042844;28;20147;-38
2022/12/29 12:10:33;;;;;;;7.80;2.38;;;11.30;99.90;;;;;;5043676;28;20131;-40
2022/12/29 12:13:18;;;;;;;8.32;2.72;;;11.20;99.90;;;;;;5023763;28;20091;-40
2022/12/29 12:15:49;;;;;;;7.78;3.05;;;11.20;99.90;;;;;;5043080;28;20086;-41
2022/12/29 12:18:24;;;;;;;10.63;3.40;;;11.20;99.90;;;;;;5043486;28;20097;-40
2022/12/29 12:20:56;;;;;;;12.93;3.88;;;11.20;99.90;;;;;;5043737;28;20646;-39
2022/12/29 12:24:15;;;;;;;11.37;2.87;;;11.30;99.90;;;;;;5044392;28;20461;-39
2022/12/29 12:26:57;;;;;;;7.53;2.92;;;11.30;99.90;;;;;;5032122;28;20080;-41
2022/12/29 12:29:38;;;;;;;10.77;2.67;;;11.30;99.90;;;;;;5042850;28;20039;-37
2022/12/29 12:32:20;;;;;;;9.45;2.72;;;11.30;99.90;;;;;;5032592;28;20037;-39
2022/12/29 12:34:47;;;;;;;7.50;2.72;;;11.30;99.90;;;;;;5043025;28;20068;-39
2022/12/29 12:37:58;;;;;;;9.68;3.00;;;11.30;99.90;;;;;;5043074;28;20024;-40
2022/12/29 12:40:36;;;;;;;13.15;3.53;;;11.30;99.90;;;;;;5042155;28;20046;-38
2022/12/29 12:43:40;;;;;;;7.93;2.97;;;11.40;99.90;;;;;;5042447;28;20116;-36
2022/12/29 12:46:25;;;;;;;10.70;2.97;;;11.40;99.90;;;;;;5042009;28;20040;-39
2022/12/29 12:49:34;;;;;;;6.78;2.80;;;11.50;99.90;;;;;;5042836;28;20029;-39
2022/12/29 12:52:14;;;;;;;8.63;3.25;;;11.50;99.90;;;;;;5042315;28;20152;-41
2022/12/29 12:55:09;;;;;;;8.32;2.53;;;11.70;99.90;;;;;;5043832;28;20135;-40
2022/12/29 12:58:09;;;;;;;7.07;2.72;;;11.60;99.90;;;;;;5021066;28;20096;-35
2022/12/29 13:01:13;;;;;;;8.73;3.00;;;11.60;99.90;;;;;;5043419;28;20029;-37
2022/12/29 13:03:59;;;;;;;6.60;2.60;;;11.60;99.90;;;;;;5035915;28;20028;-38
2022/12/29 13:06:51;;;;;;;5.95;2.60;;;11.50;99.90;;;;;;5040724;28;20051;-40
2022/12/29 13:09:40;;;;;;;6.38;2.22;;;11.50;99.90;;;;;;5041511;28;20138;-40
2022/12/29 13:12:24;;;;;;;9.55;2.60;;;11.40;99.90;;;;;;5040102;28;20044;-39
2022/12/29 13:15:13;;;;;;;9.25;2.95;;;11.40;99.90;;;;;;5020690;28;20037;-39
2022/12/29 13:18:11;;;;;;;11.05;2.63;;;11.40;99.90;;;;;;5038167;28;20036;-37
2022/12/29 13:20:47;;;;;;;10.25;2.92;;;11.40;99.90;;;;;;5040757;28;20136;-40
2022/12/29 13:23:47;;;;;;;7.80;2.78;;;11.40;99.90;;;;;;5037596;28;20021;-40
2022/12/29 13:26:41;;;;;;;7.53;2.75;;;11.30;99.90;;;;;;5040496;28;20025;-40
2022/12/29 13:29:12;;;;;;;7.30;2.60;;;11.30;99.90;;;;;;5031778;28;20051;-41
2022/12/29 13:32:04;;;;;;;10.63;2.70;;;11.30;99.90;;;;;;5041617;28;20078;-38
2022/12/29 13:34:48;;;;;;;7.90;2.60;;;11.30;99.90;;;;;;5034301;28;20496;-41
2022/12/29 13:37:18;;;;;;;7.50;2.85;;;11.30;99.90;;;;;;5041308;28;20029;-39
2022/12/29 13:40:02;;;;;;;6.80;2.53;;;11.20;99.90;;;;;;5042006;28;20056;-38
2022/12/29 13:42:28;;;;;;;9.18;2.67;;;11.20;99.90;;;;;;5042443;28;20631;-40
2022/12/29 13:45:04;;;;;;;6.53;2.63;;;11.20;99.90;;;;;;5042314;28;20291;-40
2022/12/29 13:47:56;;;;;;;9.55;2.67;;;11.20;99.90;;;;;;5042459;28;20027;-41